Time,TemperatureF,DewpointF,PressureIn,WindDirection,WindDirectionDegrees,WindSpeedMPH,WindSpeedGustMPH,Humidity,HourlyPrecipIn,Conditions,Clouds,dailyrainin,SoftwareType,DateUTC
2013-01-18 00:14:00,30.6,30.1,29.96,SSW,202,5.3,-999.0,98,-99.99,,,0.00,Acu-Link.com,2013-01-18 05:14:00,
2013-01-18 00:29:00,31.1,30.6,29.97,West,270,4.2,-999.0,98,-99.99,,,0.00,Acu-Link.com,2013-01-18 05:29:00,
2013-01-18 00:44:00,31.3,30.8,29.98,WSW,247,3.2,-999.0,98,-99.99,,,0.00,Acu-Link.com,2013-01-18 05:44:00,
2013-01-18 00:59:00,31.8,31.3,29.98,West,270,6.8,-999.0,98,-99.99,,,0.00,Acu-Link.com,2013-01-18 05:59:00,
2013-01-18 01:15:00,32.4,31.9,30.00,SSW,202,6.3,-999.0,98,-99.99,,,0.01,Acu-Link.com,2013-01-18 06:15:00,
2013-01-18 01:30:00,32.4,31.9,30.01,WSW,247,1.1,-999.0,98,-99.99,,,0.01,Acu-Link.com,2013-01-18 06:30:00,
2013-01-18 02:00:00,32.2,31.7,30.02,SW,225,7.8,-999.0,98,-99.99,,,0.01,Acu-Link.com,2013-01-18 07:00:00,
2013-01-18 02:15:00,31.6,31.1,30.04,WNW,292,2.7,-999.0,98,-99.99,,,0.01,Acu-Link.com,2013-01-18 07:15:00,
2013-01-18 02:30:00,31.6,31.1,30.05,South,180,3.2,-999.0,98,-99.99,,,0.01,Acu-Link.com,2013-01-18 07:30:00,
2013-01-18 02:47:00,31.3,30.8,30.07,West,270,3.2,-999.0,98,-99.99,,,0.01,Acu-Link.com,2013-01-18 07:47:00,
2013-01-18 03:02:00,30.4,29.9,30.08,NW,315,5.3,-999.0,98,-99.99,,,0.01,Acu-Link.com,2013-01-18 08:02:00,
2013-01-18 03:17:00,29.8,29.3,30.09,WSW,247,4.2,-999.0,98,-99.99,,,0.01,Acu-Link.com,2013-01-18 08:17:00,
2013-01-18 03:32:00,29.3,25.6,30.10,NNW,337,6.8,-999.0,86,-99.99,,,0.01,Acu-Link.com,2013-01-18 08:32:00,
2013-01-18 03:48:00,28.9,23.5,30.11,NW,315,4.2,-999.0,80,-99.99,,,0.01,Acu-Link.com,2013-01-18 08:48:00,
2013-01-18 04:03:00,28.4,21.2,30.11,West,270,4.7,-999.0,74,-99.99,,,0.01,Acu-Link.com,2013-01-18 09:03:00,
2013-01-18 04:18:00,27.7,19.9,30.12,SSW,202,7.8,-999.0,72,-99.99,,,0.01,Acu-Link.com,2013-01-18 09:18:00,
2013-01-18 04:33:00,27.1,19.6,30.13,WSW,247,4.2,-999.0,73,-99.99,,,0.01,Acu-Link.com,2013-01-18 09:33:00,
2013-01-18 04:48:00,26.8,20.0,30.13,WSW,247,6.8,-999.0,75,-99.99,,,0.01,Acu-Link.com,2013-01-18 09:48:00,
2013-01-18 05:07:00,25.9,19.1,30.15,West,270,5.8,-999.0,75,-99.99,,,0.01,Acu-Link.com,2013-01-18 10:07:00,
2013-01-18 05:22:00,25.3,18.2,30.16,NW,315,3.7,-999.0,74,-99.99,,,0.01,Acu-Link.com,2013-01-18 10:22:00,
2013-01-18 05:38:00,25.0,18.2,30.17,NW,315,5.3,-999.0,75,-99.99,,,0.01,Acu-Link.com,2013-01-18 10:38:00,
2013-01-18 05:53:00,24.8,18.6,30.18,West,270,5.3,-999.0,77,-99.99,,,0.01,Acu-Link.com,2013-01-18 10:53:00,
2013-01-18 06:08:00,24.8,18.3,30.20,WSW,247,1.7,-999.0,76,-99.99,,,0.01,Acu-Link.com,2013-01-18 11:08:00,
2013-01-18 06:25:00,23.9,17.5,30.20,WSW,247,4.7,-999.0,76,-99.99,,,0.01,Acu-Link.com,2013-01-18 11:25:00,
2013-01-18 06:44:00,23.2,16.8,30.20,SW,225,0.0,-999.0,76,-99.99,,,0.01,Acu-Link.com,2013-01-18 11:44:00,
2013-01-18 06:59:00,22.8,17.0,30.21,West,270,2.2,-999.0,78,-99.99,,,0.01,Acu-Link.com,2013-01-18 11:59:00,
2013-01-18 07:14:00,22.8,17.6,30.21,WNW,292,0.0,-999.0,80,-99.99,,,0.01,Acu-Link.com,2013-01-18 12:14:00,
2013-01-18 07:37:00,22.6,17.4,30.24,West,270,5.3,-999.0,80,-99.99,,,0.01,Acu-Link.com,2013-01-18 12:37:00,
2013-01-18 08:19:00,22.8,18.7,30.24,WSW,247,3.7,-999.0,84,-99.99,,,0.01,Acu-Link.com,2013-01-18 13:19:00,
2013-01-18 08:36:00,22.8,19.3,30.24,NW,315,4.2,-999.0,86,-99.99,,,0.01,Acu-Link.com,2013-01-18 13:36:00,
2013-01-18 08:56:00,23.0,19.4,30.26,WNW,292,3.7,-999.0,86,-99.99,,,0.01,Acu-Link.com,2013-01-18 13:56:00,
2013-01-18 09:21:00,23.5,18.8,30.26,East,90,2.7,-999.0,82,-99.99,,,0.01,Acu-Link.com,2013-01-18 14:21:00,
2013-01-18 09:37:00,23.5,18.8,30.27,West,270,2.7,-999.0,82,-99.99,,,0.01,Acu-Link.com,2013-01-18 14:37:00,
2013-01-18 10:05:00,24.1,18.0,30.29,SSW,202,0.0,-999.0,77,-99.99,,,0.01,Acu-Link.com,2013-01-18 15:05:00,
2013-01-18 10:48:00,25.9,18.1,30.28,West,270,1.1,-999.0,72,-99.99,,,0.01,Acu-Link.com,2013-01-18 15:48:00,
2013-01-18 11:37:00,27.0,18.5,30.27,NW,315,0.0,-999.0,70,-99.99,,,0.01,Acu-Link.com,2013-01-18 16:37:00,
2013-01-18 12:59:00,30.7,16.0,30.22,SSW,202,3.2,-999.0,54,-99.99,,,0.01,Acu-Link.com,2013-01-18 17:59:00,
2013-01-18 14:00:00,32.9,16.8,30.22,SW,225,4.7,-999.0,51,-99.99,,,0.01,Acu-Link.com,2013-01-18 19:00:00,
2013-01-18 14:16:00,33.6,17.4,30.22,SSW,202,2.2,-999.0,51,-99.99,,,0.01,Acu-Link.com,2013-01-18 19:16:00,
2013-01-18 14:36:00,33.8,16.7,30.22,WSW,247,2.7,-999.0,49,-99.99,,,0.01,Acu-Link.com,2013-01-18 19:36:00,
2013-01-18 14:51:00,34.2,17.1,30.21,SSW,202,6.8,-999.0,49,-99.99,,,0.01,Acu-Link.com,2013-01-18 19:51:00,
2013-01-18 15:06:00,36.0,19.6,30.21,West,270,4.7,-999.0,51,-99.99,,,0.01,Acu-Link.com,2013-01-18 20:06:00,
2013-01-18 15:21:00,34.9,18.2,30.20,SW,225,4.7,-999.0,50,-99.99,,,0.01,Acu-Link.com,2013-01-18 20:21:00,
2013-01-18 15:40:00,34.9,17.7,30.20,West,270,3.2,-999.0,49,-99.99,,,0.01,Acu-Link.com,2013-01-18 20:40:00,
2013-01-18 15:55:00,34.5,17.3,30.20,SE,135,6.3,-999.0,49,-99.99,,,0.01,Acu-Link.com,2013-01-18 20:55:00,
2013-01-18 16:11:00,34.2,16.6,30.19,South,180,6.3,-999.0,48,-99.99,,,0.01,Acu-Link.com,2013-01-18 21:11:00,
2013-01-18 16:29:00,33.6,17.4,30.19,South,180,5.3,-999.0,51,-99.99,,,0.01,Acu-Link.com,2013-01-18 21:29:00,
2013-01-18 16:53:00,33.6,17.0,30.18,WSW,247,0.0,-999.0,50,-99.99,,,0.01,Acu-Link.com,2013-01-18 21:53:00,
2013-01-18 17:25:00,33.1,17.0,30.18,SW,225,3.2,-999.0,51,-99.99,,,0.01,Acu-Link.com,2013-01-18 22:25:00,
2013-01-18 19:52:00,30.6,17.2,30.16,West,270,2.2,-999.0,57,-99.99,,,0.01,Acu-Link.com,2013-01-19 00:52:00,
2013-01-18 20:08:00,30.4,17.0,30.15,West,270,4.7,-999.0,57,-99.99,,,0.01,Acu-Link.com,2013-01-19 01:08:00,
2013-01-18 20:24:00,30.4,17.0,30.15,West,270,0.0,-999.0,57,-99.99,,,0.01,Acu-Link.com,2013-01-19 01:24:00,
2013-01-18 20:44:00,30.4,16.6,30.15,South,180,3.7,-999.0,56,-99.99,,,0.01,Acu-Link.com,2013-01-19 01:44:00,
2013-01-18 20:59:00,30.4,17.0,30.13,SW,225,3.2,-999.0,57,-99.99,,,0.01,Acu-Link.com,2013-01-19 01:59:00,
2013-01-18 21:15:00,30.4,17.0,30.14,East,90,3.7,-999.0,57,-99.99,,,0.01,Acu-Link.com,2013-01-19 02:15:00,
2013-01-18 21:32:00,30.4,16.6,30.12,WSW,247,4.2,-999.0,56,-99.99,,,0.01,Acu-Link.com,2013-01-19 02:32:00,
2013-01-18 22:05:00,31.3,17.0,30.11,WSW,247,4.2,-999.0,55,-99.99,,,0.01,Acu-Link.com,2013-01-19 03:05:00,
2013-01-18 22:20:00,31.3,16.6,30.10,SW,225,2.7,-999.0,54,-99.99,,,0.01,Acu-Link.com,2013-01-19 03:20:00,
2013-01-18 22:35:00,31.3,17.0,30.09,WNW,292,2.7,-999.0,55,-99.99,,,0.01,Acu-Link.com,2013-01-19 03:35:00,
2013-01-18 22:51:00,31.1,17.3,30.08,West,270,2.7,-999.0,56,-99.99,,,0.01,Acu-Link.com,2013-01-19 03:51:00,
2013-01-18 23:17:00,30.7,18.5,30.08,WSW,247,0.0,-999.0,60,-99.99,,,0.01,Acu-Link.com,2013-01-19 04:17:00,
2013-01-18 23:32:00,29.5,18.5,30.07,WSW,247,1.7,-999.0,63,-99.99,,,0.01,Acu-Link.com,2013-01-19 04:32:00,
2013-01-18 23:48:00,29.5,17.7,30.06,West,270,0.0,-999.0,61,-99.99,,,0.01,Acu-Link.com,2013-01-19 04:48:00,